Terminal Aerodrome Forecast
Issued by NWS Upton, NY

Home | Current Version | Previous Version | Text Only | Print | Product List | Glossary On
Versions: 1 2 3 4 5 6 7 8 9 10 11 12 13 14 15 16 17 18 19 20 21 22 23 24 25 26 27 28 29 30 31 32 33 34 35 36 37 38
000
FTUS41 KOKX 281933 AAB
TAFJFK
TAF AMD
KJFK 281933Z 2820/2924 18013KT P6SM VCTS BKN050CB BKN250
      TEMPO 2820/2822 28012G22KT 4SM -TSRA BR
     FM282200 19013KT P6SM BKN050 BKN250
     FM290100 23006KT P6SM FEW100 BKN250
     FM290400 01005KT P6SM SKC
     FM291300 06008KT P6SM SKC
     FM291800 16011KT P6SM FEW050=

USA.gov is the U.S. government's official web portal to all federal, state and local government web resources and services.